Pagrindinis puslapis
METAR-TAF:

METAR-TAF

Oro uostai :

Ernšioldsvikas, Švedija

platuma: 63-24N, ilguma: 018-58E, Aukštis: 103 m

Dabartinis oras

Ataskaita buvo paskelbta 33 minutes, ne 15:20 UTC
Vėjas 5 kt iš Pietų
Temperatūra 2°C
Drėgmė 87%
Slėgis 988 hPa
Matomumas 10 km arba daugiau
nėra debesų žemiau 1500 m ir nėra kamuolinių lietaus debesų

METAR: ESNO 211520Z 17005KT CAVOK 02/00 Q0988

Laikas: 16:53 (15:53 UTC)

Prognozė

Ataskaita buvo paskelbta 1 valandą ir 23 minutes, ne 14:30 UTC
Prognozė galioja nuo 21 metu 15 UTC su 21 metu 20 UTC
Vėjas 6 kt iš Pietvakarių
Matomumas 10 km arba daugiau
nėra debesų žemiau 1500 m ir nėra kamuolinių lietaus debesų
Tikimybė 40%
nuo 21 metu 18 UTC su 21 metu 20 UTC
Vėjas 18 kt iš Pietų/Pietvakarių

TAF: ESNO 211430Z 2115/2120 22006KT CAVOK PROB40 2118/2120 21018KT

Orai ataskaitas ir orų prognozės (METAR, TAF).

turimą stotys yra geltonos ir raudonos taškus žemėlapyje.

Perkelti pele per norėdami pamatyti stoties vardą.

Tada spustelėkite, norėdami matyti oro stebėjimo ir prognozės.

Norėdami pakeisti žemėlapį: spustelėkite ant žalios mygtukų su juodo kryžiaus žemyn,; žalią mygtuką su brūkšneliu, jei norite nutolinti; arba žalių rodyklių gretimoms žemėlapius.


METAR-TAF: